PWSweather.com
Personal Weather Stations
Station Observations
BC052CD
On, Kemptville, ON K0G 1J0

OnKemptville, ON K0G 1J0

Lat: 45.0173179, Lon: -75.6329355

Elevation: 295

Station Type: National Geographic 265NC

http://kerrentweather.ca

High Low Average
Temperature 29.7°F-1.3°C 7.7°F-13.5°C 20.8°F-6.2°C
Dew Point 20.6°F-6.3°C 2.0°F-16.7°C 12.2°F-11.0°C
Winds 8.0 mph 12.9 kmh Calm Calm 4.0 mph ENE6.4 kmh ENE
Wind Gusts 19.0 mph30.6 kmh -- 9.0 mph14.5 kmh
Humidity 96% 49% 70%
Pressure 29.87 in1011.5 mb 29.76 in1007.8 mb -
Precipitation 0.00 in0.0 mm - -
Hour Temp Dew Point Humidity Winds Wind Gusts Pressure Precip Precip Rate Daily Precip Total
12:00 AM 21.6°F-5.8°C 20.6°F-6.3°C 96% 7.1 mph ENE11.4 kmh ENE 16.2 mph26.1 kmh 29.77 in1008.1 mb 0.00 in0.0 mm 0.00 in0.0 mm 0.00 in0.0 mm
12:15 AM 21.6°F-5.8°C 20.1°F-6.6°C 94% 5.6 mph E9.0 kmh E 14.3 mph23.0 kmh 29.77 in1008.1 mb 0.00 in0.0 mm 0.00 in0.0 mm 0.00 in0.0 mm
12:30 AM 21.6°F-5.8°C 20.1°F-6.6°C 94% 6.7 mph ENE10.8 kmh ENE 15.1 mph24.3 kmh 29.77 in1008.1 mb 0.00 in0.0 mm 0.00 in0.0 mm 0.00 in0.0 mm
12:45 AM 21.7°F-5.7°C 20.1°F-6.6°C 93% 5.6 mph E9.0 kmh E 12.3 mph19.8 kmh 29.77 in1008.1 mb 0.00 in0.0 mm 0.00 in0.0 mm 0.00 in0.0 mm
01:00 AM 21.7°F-5.7°C 19.6°F-6.9°C 91% 5.4 mph E8.7 kmh E 10.3 mph16.6 kmh 29.77 in1008.1 mb 0.00 in0.0 mm 0.00 in0.0 mm 0.00 in0.0 mm
01:15 AM 21.7°F-5.7°C 19.6°F-6.9°C 91% 5.4 mph E8.7 kmh E 13.4 mph21.6 kmh 29.77 in1008.1 mb 0.00 in0.0 mm 0.00 in0.0 mm 0.00 in0.0 mm
01:30 AM 21.7°F-5.7°C 19.3°F-7.1°C 90% 6.8 mph NE10.9 kmh NE 18.2 mph29.3 kmh 29.77 in1008.1 mb 0.00 in0.0 mm 0.00 in0.0 mm 0.00 in0.0 mm
01:45 AM 21.7°F-5.7°C 18.8°F-7.3°C 88% 6.8 mph SSE10.9 kmh SSE 16.2 mph26.1 kmh 29.76 in1007.8 mb 0.00 in0.0 mm 0.00 in0.0 mm 0.00 in0.0 mm
02:00 AM 21.9°F-5.6°C 18.7°F-7.4°C 87% 6.6 mph NE10.6 kmh NE 17.1 mph27.5 kmh 29.76 in1007.8 mb 0.00 in0.0 mm 0.00 in0.0 mm 0.00 in0.0 mm
02:15 AM 21.9°F-5.6°C 18.7°F-7.4°C 87% 5.6 mph E9.0 kmh E 13.4 mph21.6 kmh 29.76 in1007.8 mb 0.00 in0.0 mm 0.00 in0.0 mm 0.00 in0.0 mm
02:30 AM 22.1°F-5.5°C 18.3°F-7.6°C 85% 5.3 mph E8.5 kmh E 13.4 mph21.6 kmh 29.77 in1008.1 mb 0.00 in0.0 mm 0.00 in0.0 mm 0.00 in0.0 mm
02:45 AM 22.1°F-5.5°C 18.3°F-7.6°C 85% 5.0 mph ENE8.0 kmh ENE 14.3 mph23.0 kmh 29.77 in1008.1 mb 0.00 in0.0 mm 0.00 in0.0 mm 0.00 in0.0 mm
03:00 AM 22.3°F-5.4°C 18.2°F-7.7°C 84% 4.8 mph E7.7 kmh E 12.3 mph19.8 kmh 29.78 in1008.5 mb 0.00 in0.0 mm 0.00 in0.0 mm 0.00 in0.0 mm
03:15 AM 22.3°F-5.4°C 18.2°F-7.7°C 84% 5.3 mph E8.5 kmh E 14.3 mph23.0 kmh 29.78 in1008.5 mb 0.00 in0.0 mm 0.00 in0.0 mm 0.00 in0.0 mm
03:30 AM 22.5°F-5.3°C 17.8°F-7.9°C 82% 5.7 mph E9.2 kmh E 11.5 mph18.5 kmh 29.79 in1008.8 mb 0.00 in0.0 mm 0.00 in0.0 mm 0.00 in0.0 mm
03:45 AM 22.5°F-5.3°C 17.8°F-7.9°C 82% 5.5 mph E8.9 kmh E 12.3 mph19.8 kmh 29.78 in1008.5 mb 0.00 in0.0 mm 0.00 in0.0 mm 0.00 in0.0 mm
04:00 AM 22.6°F-5.2°C 17.7°F-7.9°C 81% 5.9 mph E9.5 kmh E 13.4 mph21.6 kmh 29.79 in1008.8 mb 0.00 in0.0 mm 0.00 in0.0 mm 0.00 in0.0 mm
04:15 AM 22.6°F-5.2°C 17.7°F-7.9°C 81% 5.2 mph E8.4 kmh E 14.3 mph23.0 kmh 29.79 in1008.8 mb 0.00 in0.0 mm 0.00 in0.0 mm 0.00 in0.0 mm
04:30 AM 22.8°F-5.1°C 17.9°F-7.8°C 81% 6.1 mph E9.8 kmh E 13.4 mph21.6 kmh 29.79 in1008.8 mb 0.00 in0.0 mm 0.00 in0.0 mm 0.00 in0.0 mm
04:45 AM 23.0°F-5.0°C 17.5°F-8.1°C 79% 6.1 mph E9.8 kmh E 14.3 mph23.0 kmh 29.79 in1008.8 mb 0.00 in0.0 mm 0.00 in0.0 mm 0.00 in0.0 mm
05:00 AM 23.0°F-5.0°C 17.5°F-8.1°C 79% 5.9 mph SE9.5 kmh SE 13.4 mph21.6 kmh 29.79 in1008.8 mb 0.00 in0.0 mm 0.00 in0.0 mm 0.00 in0.0 mm
05:15 AM 23.0°F-5.0°C 17.2°F-8.2°C 78% 6.1 mph E9.8 kmh E 14.3 mph23.0 kmh 29.79 in1008.8 mb 0.00 in0.0 mm 0.00 in0.0 mm 0.00 in0.0 mm
05:30 AM 23.2°F-4.9°C 17.4°F-8.1°C 78% 6.0 mph ENE9.7 kmh ENE 14.3 mph23.0 kmh 29.80 in1009.1 mb 0.00 in0.0 mm 0.00 in0.0 mm 0.00 in0.0 mm
05:45 AM 23.2°F-4.9°C 16.8°F-8.4°C 76% 6.3 mph E10.1 kmh E 19.0 mph30.6 kmh 29.79 in1008.8 mb 0.00 in0.0 mm 0.00 in0.0 mm 0.00 in0.0 mm
06:00 AM 23.2°F-4.9°C 16.5°F-8.6°C 75% 7.7 mph E12.4 kmh E 15.1 mph24.3 kmh 29.79 in1008.8 mb 0.00 in0.0 mm 0.00 in0.0 mm 0.00 in0.0 mm
06:15 AM 23.2°F-4.9°C 16.5°F-8.6°C 75% 5.9 mph E9.5 kmh E 16.2 mph26.1 kmh 29.80 in1009.1 mb 0.00 in0.0 mm 0.00 in0.0 mm 0.00 in0.0 mm
06:30 AM 23.2°F-4.9°C 16.5°F-8.6°C 75% 5.4 mph ENE8.7 kmh ENE 11.5 mph18.5 kmh 29.80 in1009.1 mb 0.00 in0.0 mm 0.00 in0.0 mm 0.00 in0.0 mm
06:45 AM 23.2°F-4.9°C 15.9°F-8.9°C 73% 6.2 mph E10.0 kmh E 15.1 mph24.3 kmh 29.81 in1009.5 mb 0.00 in0.0 mm 0.00 in0.0 mm 0.00 in0.0 mm
07:00 AM 23.2°F-4.9°C 15.9°F-8.9°C 73% 6.2 mph E10.0 kmh E 14.3 mph23.0 kmh 29.82 in1009.8 mb 0.00 in0.0 mm 0.00 in0.0 mm 0.00 in0.0 mm
07:15 AM 23.2°F-4.9°C 15.9°F-8.9°C 73% 6.9 mph ENE11.1 kmh ENE 17.1 mph27.5 kmh 29.82 in1009.8 mb 0.00 in0.0 mm 0.00 in0.0 mm 0.00 in0.0 mm
07:30 AM 23.2°F-4.9°C 15.5°F-9.2°C 72% 6.9 mph E11.1 kmh E 16.2 mph26.1 kmh 29.82 in1009.8 mb 0.00 in0.0 mm 0.00 in0.0 mm 0.00 in0.0 mm
07:45 AM 23.0°F-5.0°C 15.4°F-9.2°C 72% 6.7 mph E10.8 kmh E 14.3 mph23.0 kmh 29.83 in1010.2 mb 0.00 in0.0 mm 0.00 in0.0 mm 0.00 in0.0 mm
08:00 AM 23.0°F-5.0°C 15.4°F-9.2°C 72% 7.3 mph E11.7 kmh E 17.1 mph27.5 kmh 29.83 in1010.2 mb 0.00 in0.0 mm 0.00 in0.0 mm 0.00 in0.0 mm
08:15 AM 23.0°F-5.0°C 14.7°F-9.6°C 70% 6.6 mph E10.6 kmh E 17.1 mph27.5 kmh 29.84 in1010.5 mb 0.00 in0.0 mm 0.00 in0.0 mm 0.00 in0.0 mm
08:30 AM 22.8°F-5.1°C 14.5°F-9.7°C 70% 7.7 mph E12.4 kmh E 18.2 mph29.3 kmh 29.83 in1010.2 mb 0.00 in0.0 mm 0.00 in0.0 mm 0.00 in0.0 mm
08:45 AM 22.6°F-5.2°C 14.4°F-9.8°C 70% 7.9 mph E12.7 kmh E 18.2 mph29.3 kmh 29.84 in1010.5 mb 0.00 in0.0 mm 0.00 in0.0 mm 0.00 in0.0 mm
09:00 AM 22.5°F-5.3°C 13.9°F-10.1°C 69% 8.0 mph E12.9 kmh E 18.2 mph29.3 kmh 29.84 in1010.5 mb 0.00 in0.0 mm 0.00 in0.0 mm 0.00 in0.0 mm
09:15 AM 22.6°F-5.2°C 14.0°F-10.0°C 69% 4.9 mph E7.9 kmh E 13.4 mph21.6 kmh 29.85 in1010.8 mb 0.00 in0.0 mm 0.00 in0.0 mm 0.00 in0.0 mm
09:30 AM 22.6°F-5.2°C 14.0°F-10.0°C 69% 4.9 mph E7.9 kmh E 12.3 mph19.8 kmh 29.86 in1011.2 mb 0.00 in0.0 mm 0.00 in0.0 mm 0.00 in0.0 mm
09:45 AM 23.0°F-5.0°C 14.4°F-9.8°C 69% 6.2 mph SE10.0 kmh SE 15.1 mph24.3 kmh 29.86 in1011.2 mb 0.00 in0.0 mm 0.00 in0.0 mm 0.00 in0.0 mm
10:00 AM 23.2°F-4.9°C 14.6°F-9.7°C 69% 5.1 mph ENE8.2 kmh ENE 15.1 mph24.3 kmh 29.86 in1011.2 mb 0.00 in0.0 mm 0.00 in0.0 mm 0.00 in0.0 mm
10:15 AM 23.4°F-4.8°C 14.1°F-9.9°C 67% 6.2 mph E10.0 kmh E 14.3 mph23.0 kmh 29.86 in1011.2 mb 0.00 in0.0 mm 0.00 in0.0 mm 0.00 in0.0 mm
10:30 AM 23.4°F-4.8°C 14.1°F-9.9°C 67% 4.8 mph NE7.7 kmh NE 11.5 mph18.5 kmh 29.86 in1011.2 mb 0.00 in0.0 mm 0.00 in0.0 mm 0.00 in0.0 mm
10:45 AM 23.7°F-4.6°C 14.1°F-9.9°C 66% 4.2 mph E6.8 kmh E 9.5 mph15.3 kmh 29.85 in1010.8 mb 0.00 in0.0 mm 0.00 in0.0 mm 0.00 in0.0 mm
11:00 AM 23.9°F-4.5°C 14.2°F-9.9°C 66% 3.4 mph E5.5 kmh E 10.3 mph16.6 kmh 29.85 in1010.8 mb 0.00 in0.0 mm 0.00 in0.0 mm 0.00 in0.0 mm
11:15 AM 24.6°F-4.1°C 14.9°F-9.5°C 66% 2.7 mph ENE4.3 kmh ENE 8.7 mph14.0 kmh 29.85 in1010.8 mb 0.00 in0.0 mm 0.00 in0.0 mm 0.00 in0.0 mm
11:30 AM 25.2°F-3.8°C 14.7°F-9.6°C 64% 5.2 mph ENE8.4 kmh ENE 11.5 mph18.5 kmh 29.84 in1010.5 mb 0.00 in0.0 mm 0.00 in0.0 mm 0.00 in0.0 mm
11:45 AM 27.9°F-2.3°C 16.2°F-8.8°C 61% 6.1 mph E9.8 kmh E 13.4 mph21.6 kmh 29.84 in1010.5 mb 0.00 in0.0 mm 0.00 in0.0 mm 0.00 in0.0 mm
12:00 PM 26.6°F-3.0°C 15.0°F-9.4°C 61% 4.4 mph ENE7.1 kmh ENE 10.3 mph16.6 kmh 29.84 in1010.5 mb 0.00 in0.0 mm 0.00 in0.0 mm 0.00 in0.0 mm
12:15 PM 27.0°F-2.8°C 15.0°F-9.4°C 60% 4.2 mph E6.8 kmh E 9.5 mph15.3 kmh 29.84 in1010.5 mb 0.00 in0.0 mm 0.00 in0.0 mm 0.00 in0.0 mm
12:30 PM 27.0°F-2.8°C 13.8°F-10.1°C 57% 7.0 mph E11.3 kmh E 18.2 mph29.3 kmh 29.84 in1010.5 mb 0.00 in0.0 mm 0.00 in0.0 mm 0.00 in0.0 mm
12:45 PM 26.8°F-2.9°C 12.8°F-10.7°C 55% 7.0 mph ENE11.3 kmh ENE 18.2 mph29.3 kmh 29.84 in1010.5 mb 0.00 in0.0 mm 0.00 in0.0 mm 0.00 in0.0 mm
01:00 PM 26.6°F-3.0°C 12.7°F-10.7°C 55% 5.6 mph E9.0 kmh E 13.4 mph21.6 kmh 29.83 in1010.2 mb 0.00 in0.0 mm 0.00 in0.0 mm 0.00 in0.0 mm
01:15 PM 26.6°F-3.0°C 12.7°F-10.7°C 55% 5.5 mph ENE8.9 kmh ENE 12.3 mph19.8 kmh 29.83 in1010.2 mb 0.00 in0.0 mm 0.00 in0.0 mm 0.00 in0.0 mm
01:30 PM 27.0°F-2.8°C 13.0°F-10.6°C 55% 3.4 mph E5.5 kmh E 9.5 mph15.3 kmh 29.82 in1009.8 mb 0.00 in0.0 mm 0.00 in0.0 mm 0.00 in0.0 mm
01:45 PM 27.0°F-2.8°C 12.6°F-10.8°C 54% 3.0 mph E4.8 kmh E 6.7 mph10.8 kmh 29.82 in1009.8 mb 0.00 in0.0 mm 0.00 in0.0 mm 0.00 in0.0 mm
02:00 PM 27.1°F-2.7°C 12.7°F-10.7°C 54% 2.3 mph E3.7 kmh E 5.6 mph9.0 kmh 29.82 in1009.8 mb 0.00 in0.0 mm 0.00 in0.0 mm 0.00 in0.0 mm
02:15 PM 28.2°F-2.1°C 13.7°F-10.2°C 54% 2.2 mph E3.5 kmh E 8.7 mph14.0 kmh 29.82 in1009.8 mb 0.00 in0.0 mm 0.00 in0.0 mm 0.00 in0.0 mm
02:30 PM 29.1°F-1.6°C 14.6°F-9.7°C 54% 2.3 mph ENE3.7 kmh ENE 6.7 mph10.8 kmh 29.82 in1009.8 mb 0.00 in0.0 mm 0.00 in0.0 mm 0.00 in0.0 mm
02:45 PM 29.7°F-1.3°C 13.8°F-10.1°C 51% 3.3 mph E5.3 kmh E 9.5 mph15.3 kmh 29.82 in1009.8 mb 0.00 in0.0 mm 0.00 in0.0 mm 0.00 in0.0 mm
03:00 PM 29.5°F-1.4°C 13.6°F-10.2°C 51% 2.3 mph E3.7 kmh E 5.6 mph9.0 kmh 29.82 in1009.8 mb 0.00 in0.0 mm 0.00 in0.0 mm 0.00 in0.0 mm
03:15 PM 29.1°F-1.6°C 12.4°F-10.9°C 49% 1.9 mph E3.1 kmh E 4.8 mph7.7 kmh 29.82 in1009.8 mb 0.00 in0.0 mm 0.00 in0.0 mm 0.00 in0.0 mm
03:30 PM 28.9°F-1.7°C 12.2°F-11.0°C 49% 0.3 mph E0.5 kmh E 2.8 mph4.5 kmh 29.83 in1010.2 mb 0.00 in0.0 mm 0.00 in0.0 mm 0.00 in0.0 mm
03:45 PM 28.2°F-2.1°C 11.6°F-11.3°C 49% 0.2 mph E0.3 kmh E 2.8 mph4.5 kmh 29.84 in1010.5 mb 0.00 in0.0 mm 0.00 in0.0 mm 0.00 in0.0 mm
04:00 PM 27.5°F-2.5°C 10.9°F-11.7°C 49% Calm Calm 2.0 mph3.2 kmh 29.84 in1010.5 mb 0.00 in0.0 mm 0.00 in0.0 mm 0.00 in0.0 mm
04:15 PM 26.4°F-3.1°C 10.8°F-11.8°C 51% Calm Calm 0.8 mph1.3 kmh 29.84 in1010.5 mb 0.00 in0.0 mm 0.00 in0.0 mm 0.00 in0.0 mm
04:30 PM 25.0°F-3.9°C 9.5°F-12.5°C 51% Calm Calm 0.8 mph1.3 kmh 29.84 in1010.5 mb 0.00 in0.0 mm 0.00 in0.0 mm 0.00 in0.0 mm
04:45 PM 23.2°F-4.9°C 8.2°F-13.2°C 52% Calm Calm 0.8 mph1.3 kmh 29.85 in1010.8 mb 0.00 in0.0 mm 0.00 in0.0 mm 0.00 in0.0 mm
05:00 PM 21.7°F-5.7°C 8.1°F-13.3°C 55% 1.2 mph E1.9 kmh E 4.8 mph7.7 kmh 29.85 in1010.8 mb 0.00 in0.0 mm 0.00 in0.0 mm 0.00 in0.0 mm
05:15 PM 21.2°F-6.0°C 8.4°F-13.1°C 57% 0.8 mph ENE1.3 kmh ENE 3.9 mph6.3 kmh 29.86 in1011.2 mb 0.00 in0.0 mm 0.00 in0.0 mm 0.00 in0.0 mm
05:30 PM 20.7°F-6.3°C 7.9°F-13.4°C 57% 0.3 mph NE0.5 kmh NE 2.8 mph4.5 kmh 29.86 in1011.2 mb 0.00 in0.0 mm 0.00 in0.0 mm 0.00 in0.0 mm
05:45 PM 19.8°F-6.8°C 7.4°F-13.7°C 58% Calm Calm 2.0 mph3.2 kmh 29.86 in1011.2 mb 0.00 in0.0 mm 0.00 in0.0 mm 0.00 in0.0 mm
06:00 PM 18.7°F-7.4°C 6.4°F-14.2°C 58% Calm Calm 0.8 mph1.3 kmh 29.86 in1011.2 mb 0.00 in0.0 mm 0.00 in0.0 mm 0.00 in0.0 mm
06:15 PM 17.8°F-7.9°C 6.7°F-14.1°C 61% 0.7 mph NNE1.1 kmh NNE 2.8 mph4.5 kmh 29.86 in1011.2 mb 0.00 in0.0 mm 0.00 in0.0 mm 0.00 in0.0 mm
06:30 PM 17.1°F-8.3°C 6.0°F-14.4°C 61% 0.1 mph SE0.2 kmh SE 2.0 mph3.2 kmh 29.86 in1011.2 mb 0.00 in0.0 mm 0.00 in0.0 mm 0.00 in0.0 mm
06:45 PM 16.2°F-8.8°C 5.8°F-14.6°C 63% 0.1 mph NNE0.2 kmh NNE 2.0 mph3.2 kmh 29.86 in1011.2 mb 0.00 in0.0 mm 0.00 in0.0 mm 0.00 in0.0 mm
07:00 PM 15.1°F-9.4°C 5.2°F-14.9°C 64% 0.1 mph NNW0.2 kmh NNW 0.8 mph1.3 kmh 29.86 in1011.2 mb 0.00 in0.0 mm 0.00 in0.0 mm 0.00 in0.0 mm
07:15 PM 14.2°F-9.9°C 5.0°F-15.0°C 66% Calm Calm 0.8 mph1.3 kmh 29.87 in1011.5 mb 0.00 in0.0 mm 0.00 in0.0 mm 0.00 in0.0 mm
07:30 PM 13.6°F-10.2°C 4.8°F-15.1°C 67% Calm Calm 0.8 mph1.3 kmh 29.86 in1011.2 mb 0.00 in0.0 mm 0.00 in0.0 mm 0.00 in0.0 mm
07:45 PM 12.7°F-10.7°C 3.9°F-15.6°C 67% Calm Calm -- 29.87 in1011.5 mb 0.00 in0.0 mm 0.00 in0.0 mm 0.00 in0.0 mm
08:00 PM 12.0°F-11.1°C 3.9°F-15.6°C 69% Calm Calm -- 29.86 in1011.2 mb 0.00 in0.0 mm 0.00 in0.0 mm 0.00 in0.0 mm
08:15 PM 11.1°F-11.6°C 3.0°F-16.1°C 69% Calm Calm -- 29.86 in1011.2 mb 0.00 in0.0 mm 0.00 in0.0 mm 0.00 in0.0 mm
08:30 PM 10.4°F-12.0°C 2.6°F-16.3°C 70% Calm Calm 0.8 mph1.3 kmh 29.86 in1011.2 mb 0.00 in0.0 mm 0.00 in0.0 mm 0.00 in0.0 mm
08:45 PM 9.9°F-12.3°C 2.1°F-16.6°C 70% Calm Calm -- 29.86 in1011.2 mb 0.00 in0.0 mm 0.00 in0.0 mm 0.00 in0.0 mm
09:00 PM 9.5°F-12.5°C 2.4°F-16.4°C 72% 0.1 mph SE0.2 kmh SE 2.8 mph4.5 kmh 29.87 in1011.5 mb 0.00 in0.0 mm 0.00 in0.0 mm 0.00 in0.0 mm
09:15 PM 9.3°F-12.6°C 2.5°F-16.4°C 73% Calm Calm 0.8 mph1.3 kmh 29.87 in1011.5 mb 0.00 in0.0 mm 0.00 in0.0 mm 0.00 in0.0 mm
09:30 PM 9.1°F-12.7°C 2.3°F-16.5°C 73% Calm Calm 0.8 mph1.3 kmh 29.87 in1011.5 mb 0.00 in0.0 mm 0.00 in0.0 mm 0.00 in0.0 mm
09:45 PM 9.1°F-12.7°C 2.9°F-16.2°C 75% 0.2 mph NE0.3 kmh NE 2.0 mph3.2 kmh 29.87 in1011.5 mb 0.00 in0.0 mm 0.00 in0.0 mm 0.00 in0.0 mm
10:00 PM 9.0°F-12.8°C 2.7°F-16.3°C 75% Calm Calm 0.8 mph1.3 kmh 29.87 in1011.5 mb 0.00 in0.0 mm 0.00 in0.0 mm 0.00 in0.0 mm
10:15 PM 8.8°F-12.9°C 2.6°F-16.3°C 75% Calm Calm 0.8 mph1.3 kmh 29.87 in1011.5 mb 0.00 in0.0 mm 0.00 in0.0 mm 0.00 in0.0 mm
10:30 PM 8.2°F-13.2°C 2.3°F-16.5°C 76% Calm Calm 2.0 mph3.2 kmh 29.87 in1011.5 mb 0.00 in0.0 mm 0.00 in0.0 mm 0.00 in0.0 mm
10:45 PM 8.2°F-13.2°C 2.3°F-16.5°C 76% Calm Calm 0.8 mph1.3 kmh 29.87 in1011.5 mb 0.00 in0.0 mm 0.00 in0.0 mm 0.00 in0.0 mm
11:00 PM 7.9°F-13.4°C 2.0°F-16.7°C 76% Calm Calm 0.8 mph1.3 kmh 29.86 in1011.2 mb 0.00 in0.0 mm 0.00 in0.0 mm 0.00 in0.0 mm
11:15 PM 7.7°F-13.5°C 2.4°F-16.4°C 78% Calm Calm -- 29.86 in1011.2 mb 0.00 in0.0 mm 0.00 in0.0 mm 0.00 in0.0 mm
11:30 PM 7.9°F-13.4°C 2.5°F-16.4°C 78% Calm Calm 2.0 mph3.2 kmh 29.85 in1010.8 mb 0.00 in0.0 mm 0.00 in0.0 mm 0.00 in0.0 mm
11:45 PM 8.2°F-13.2°C 3.2°F-16.0°C 79% Calm Calm 2.0 mph3.2 kmh 29.84 in1010.5 mb 0.00 in0.0 mm 0.00 in0.0 mm 0.00 in0.0 mm